sensor_id;sensor_type;location;lat;lon;timestamp;temperature;humidity
10384;DHT22;5238;43.508;4.980;2024-03-06T00:02:14;9.00;91.30
10384;DHT22;5238;43.508;4.980;2024-03-06T00:04:41;8.90;91.30
10384;DHT22;5238;43.508;4.980;2024-03-06T00:07:08;8.90;91.30
10384;DHT22;5238;43.508;4.980;2024-03-06T00:09:35;8.90;91.30
10384;DHT22;5238;43.508;4.980;2024-03-06T00:12:02;8.80;91.30
10384;DHT22;5238;43.508;4.980;2024-03-06T00:14:31;8.80;91.30
10384;DHT22;5238;43.508;4.980;2024-03-06T00:16:58;8.80;91.30
10384;DHT22;5238;43.508;4.980;2024-03-06T00:19:25;8.80;91.30
10384;DHT22;5238;43.508;4.980;2024-03-06T00:21:51;8.80;91.30
10384;DHT22;5238;43.508;4.980;2024-03-06T00:24:19;8.80;91.30
10384;DHT22;5238;43.508;4.980;2024-03-06T00:26:46;8.70;91.30
10384;DHT22;5238;43.508;4.980;2024-03-06T00:29:14;8.70;91.30
10384;DHT22;5238;43.508;4.980;2024-03-06T00:31:44;8.70;91.30
10384;DHT22;5238;43.508;4.980;2024-03-06T00:34:11;8.70;91.30
10384;DHT22;5238;43.508;4.980;2024-03-06T00:36:39;8.70;91.30
10384;DHT22;5238;43.508;4.980;2024-03-06T00:39:06;8.70;91.30
10384;DHT22;5238;43.508;4.980;2024-03-06T00:41:34;8.70;91.30
10384;DHT22;5238;43.508;4.980;2024-03-06T00:44:01;8.70;91.30
10384;DHT22;5238;43.508;4.980;2024-03-06T00:46:28;8.70;91.30
10384;DHT22;5238;43.508;4.980;2024-03-06T00:48:56;8.70;91.30
10384;DHT22;5238;43.508;4.980;2024-03-06T00:51:23;8.70;91.30
10384;DHT22;5238;43.508;4.980;2024-03-06T00:53:50;8.70;91.30
10384;DHT22;5238;43.508;4.980;2024-03-06T00:56:17;8.70;91.30
10384;DHT22;5238;43.508;4.980;2024-03-06T00:58:44;8.70;91.30
10384;DHT22;5238;43.508;4.980;2024-03-06T01:01:11;8.60;91.30
10384;DHT22;5238;43.508;4.980;2024-03-06T01:03:38;8.60;91.30
10384;DHT22;5238;43.508;4.980;2024-03-06T01:06:06;8.60;91.30
10384;DHT22;5238;43.508;4.980;2024-03-06T01:08:33;8.60;91.30
10384;DHT22;5238;43.508;4.980;2024-03-06T01:11:01;8.50;91.30
10384;DHT22;5238;43.508;4.980;2024-03-06T01:13:29;8.50;91.30
10384;DHT22;5238;43.508;4.980;2024-03-06T01:15:56;8.50;91.30
10384;DHT22;5238;43.508;4.980;2024-03-06T01:18:23;8.50;91.30
10384;DHT22;5238;43.508;4.980;2024-03-06T01:20:50;8.50;91.30
10384;DHT22;5238;43.508;4.980;2024-03-06T01:23:18;8.50;91.30
10384;DHT22;5238;43.508;4.980;2024-03-06T01:25:46;8.50;91.30
10384;DHT22;5238;43.508;4.980;2024-03-06T01:28:13;8.50;91.30
10384;DHT22;5238;43.508;4.980;2024-03-06T01:30:39;8.40;91.30
10384;DHT22;5238;43.508;4.980;2024-03-06T01:33:06;8.40;91.30
10384;DHT22;5238;43.508;4.980;2024-03-06T01:35:33;8.40;91.30
10384;DHT22;5238;43.508;4.980;2024-03-06T01:38:00;8.30;91.30
10384;DHT22;5238;43.508;4.980;2024-03-06T01:40:29;8.30;91.30
10384;DHT22;5238;43.508;4.980;2024-03-06T01:42:56;8.20;91.30
10384;DHT22;5238;43.508;4.980;2024-03-06T01:45:23;8.20;91.30
10384;DHT22;5238;43.508;4.980;2024-03-06T01:47:50;8.10;91.30
10384;DHT22;5238;43.508;4.980;2024-03-06T01:50:17;8.10;91.30
10384;DHT22;5238;43.508;4.980;2024-03-06T01:52:45;8.10;91.30
10384;DHT22;5238;43.508;4.980;2024-03-06T01:55:13;8.00;91.30
10384;DHT22;5238;43.508;4.980;2024-03-06T01:57:42;8.00;91.30
10384;DHT22;5238;43.508;4.980;2024-03-06T02:00:11;8.00;91.30
10384;DHT22;5238;43.508;4.980;2024-03-06T02:02:41;8.00;91.30
10384;DHT22;5238;43.508;4.980;2024-03-06T02:05:08;8.00;91.30
10384;DHT22;5238;43.508;4.980;2024-03-06T02:07:36;8.00;91.30
10384;DHT22;5238;43.508;4.980;2024-03-06T02:10:07;7.90;91.30
10384;DHT22;5238;43.508;4.980;2024-03-06T02:12:35;7.90;91.30
10384;DHT22;5238;43.508;4.980;2024-03-06T02:15:05;7.90;91.30
10384;DHT22;5238;43.508;4.980;2024-03-06T02:17:32;7.80;91.30
10384;DHT22;5238;43.508;4.980;2024-03-06T02:19:59;7.80;91.30
10384;DHT22;5238;43.508;4.980;2024-03-06T02:22:28;7.80;91.30
10384;DHT22;5238;43.508;4.980;2024-03-06T02:24:55;7.70;91.30
10384;DHT22;5238;43.508;4.980;2024-03-06T02:27:22;7.70;91.30
10384;DHT22;5238;43.508;4.980;2024-03-06T02:29:49;7.70;91.30
10384;DHT22;5238;43.508;4.980;2024-03-06T02:32:16;7.70;91.30
10384;DHT22;5238;43.508;4.980;2024-03-06T02:34:43;7.70;91.30
10384;DHT22;5238;43.508;4.980;2024-03-06T02:37:10;7.70;91.30
10384;DHT22;5238;43.508;4.980;2024-03-06T02:39:39;7.60;91.30
10384;DHT22;5238;43.508;4.980;2024-03-06T02:42:06;7.60;91.30
10384;DHT22;5238;43.508;4.980;2024-03-06T02:44:33;7.60;91.30
10384;DHT22;5238;43.508;4.980;2024-03-06T02:47:00;7.70;91.30
10384;DHT22;5238;43.508;4.980;2024-03-06T02:49:27;7.60;91.30
10384;DHT22;5238;43.508;4.980;2024-03-06T02:51:54;7.60;91.30
10384;DHT22;5238;43.508;4.980;2024-03-06T02:54:21;7.60;91.30
10384;DHT22;5238;43.508;4.980;2024-03-06T02:56:52;7.60;91.30
10384;DHT22;5238;43.508;4.980;2024-03-06T02:59:19;7.50;91.30
10384;DHT22;5238;43.508;4.980;2024-03-06T03:01:46;7.50;91.30
10384;DHT22;5238;43.508;4.980;2024-03-06T03:04:13;7.50;91.30
10384;DHT22;5238;43.508;4.980;2024-03-06T03:06:40;7.40;91.30
10384;DHT22;5238;43.508;4.980;2024-03-06T03:09:07;7.40;91.30
10384;DHT22;5238;43.508;4.980;2024-03-06T03:11:37;7.40;91.30
10384;DHT22;5238;43.508;4.980;2024-03-06T03:14:05;7.40;91.30
10384;DHT22;5238;43.508;4.980;2024-03-06T03:16:32;7.40;91.30
10384;DHT22;5238;43.508;4.980;2024-03-06T03:19:01;7.40;91.30
10384;DHT22;5238;43.508;4.980;2024-03-06T03:21:28;7.40;91.30
10384;DHT22;5238;43.508;4.980;2024-03-06T03:23:54;7.40;91.30
10384;DHT22;5238;43.508;4.980;2024-03-06T03:26:21;7.40;91.30
10384;DHT22;5238;43.508;4.980;2024-03-06T03:28:48;7.40;91.30
10384;DHT22;5238;43.508;4.980;2024-03-06T03:31:16;7.30;91.30
10384;DHT22;5238;43.508;4.980;2024-03-06T03:33:43;7.30;91.30
10384;DHT22;5238;43.508;4.980;2024-03-06T03:36:10;7.30;91.30
10384;DHT22;5238;43.508;4.980;2024-03-06T03:38:38;7.30;91.30
10384;DHT22;5238;43.508;4.980;2024-03-06T03:41:07;7.30;91.30
10384;DHT22;5238;43.508;4.980;2024-03-06T03:43:34;7.30;91.30
10384;DHT22;5238;43.508;4.980;2024-03-06T03:46:01;7.20;91.30
10384;DHT22;5238;43.508;4.980;2024-03-06T03:48:31;7.20;91.30
10384;DHT22;5238;43.508;4.980;2024-03-06T03:50:58;7.20;91.30
10384;DHT22;5238;43.508;4.980;2024-03-06T03:53:24;7.20;91.30
10384;DHT22;5238;43.508;4.980;2024-03-06T03:55:51;7.20;91.30
10384;DHT22;5238;43.508;4.980;2024-03-06T03:58:18;7.20;91.30
10384;DHT22;5238;43.508;4.980;2024-03-06T04:00:45;7.20;91.30
10384;DHT22;5238;43.508;4.980;2024-03-06T04:03:12;7.20;91.30
10384;DHT22;5238;43.508;4.980;2024-03-06T04:05:41;7.20;91.30
10384;DHT22;5238;43.508;4.980;2024-03-06T04:08:07;7.20;91.30
10384;DHT22;5238;43.508;4.980;2024-03-06T04:10:34;7.20;91.30
10384;DHT22;5238;43.508;4.980;2024-03-06T04:13:01;7.20;91.30
10384;DHT22;5238;43.508;4.980;2024-03-06T04:15:29;7.10;91.30
10384;DHT22;5238;43.508;4.980;2024-03-06T04:17:56;7.10;91.30
10384;DHT22;5238;43.508;4.980;2024-03-06T04:20:23;7.10;91.30
10384;DHT22;5238;43.508;4.980;2024-03-06T04:22:51;7.10;91.30
10384;DHT22;5238;43.508;4.980;2024-03-06T04:25:19;7.00;91.30
10384;DHT22;5238;43.508;4.980;2024-03-06T04:27:46;7.00;91.30
10384;DHT22;5238;43.508;4.980;2024-03-06T04:30:13;7.00;91.30
10384;DHT22;5238;43.508;4.980;2024-03-06T04:32:40;7.00;91.30
10384;DHT22;5238;43.508;4.980;2024-03-06T04:35:07;7.00;91.30
10384;DHT22;5238;43.508;4.980;2024-03-06T04:37:35;7.00;91.30
10384;DHT22;5238;43.508;4.980;2024-03-06T04:40:05;7.00;91.30
10384;DHT22;5238;43.508;4.980;2024-03-06T04:42:33;7.00;91.30
10384;DHT22;5238;43.508;4.980;2024-03-06T04:45:01;6.90;91.30
10384;DHT22;5238;43.508;4.980;2024-03-06T04:47:29;6.90;91.30
10384;DHT22;5238;43.508;4.980;2024-03-06T04:49:57;6.90;91.30
10384;DHT22;5238;43.508;4.980;2024-03-06T04:52:24;6.90;91.30
10384;DHT22;5238;43.508;4.980;2024-03-06T04:54:51;6.90;91.30
10384;DHT22;5238;43.508;4.980;2024-03-06T04:57:19;6.90;91.30
10384;DHT22;5238;43.508;4.980;2024-03-06T04:59:46;6.90;91.30
10384;DHT22;5238;43.508;4.980;2024-03-06T05:02:13;7.00;91.30
10384;DHT22;5238;43.508;4.980;2024-03-06T05:04:40;7.00;91.30
10384;DHT22;5238;43.508;4.980;2024-03-06T05:07:07;7.00;91.30
10384;DHT22;5238;43.508;4.980;2024-03-06T05:09:34;7.00;91.30
10384;DHT22;5238;43.508;4.980;2024-03-06T05:12:01;7.00;91.30
10384;DHT22;5238;43.508;4.980;2024-03-06T05:14:29;7.00;91.30
10384;DHT22;5238;43.508;4.980;2024-03-06T05:16:56;7.00;91.30
10384;DHT22;5238;43.508;4.980;2024-03-06T05:19:23;7.00;91.30
10384;DHT22;5238;43.508;4.980;2024-03-06T05:21:55;7.00;91.30
10384;DHT22;5238;43.508;4.980;2024-03-06T05:24:22;7.00;91.30
10384;DHT22;5238;43.508;4.980;2024-03-06T05:26:49;7.00;91.30
10384;DHT22;5238;43.508;4.980;2024-03-06T05:29:16;7.00;91.30
10384;DHT22;5238;43.508;4.980;2024-03-06T05:31:44;7.00;91.30
10384;DHT22;5238;43.508;4.980;2024-03-06T05:34:11;7.00;91.30
10384;DHT22;5238;43.508;4.980;2024-03-06T05:36:38;7.00;91.30
10384;DHT22;5238;43.508;4.980;2024-03-06T05:39:05;7.10;91.30
10384;DHT22;5238;43.508;4.980;2024-03-06T05:41:38;7.00;91.30
10384;DHT22;5238;43.508;4.980;2024-03-06T05:44:05;7.00;91.30
10384;DHT22;5238;43.508;4.980;2024-03-06T05:46:32;7.00;91.30
10384;DHT22;5238;43.508;4.980;2024-03-06T05:49:00;7.00;91.30
10384;DHT22;5238;43.508;4.980;2024-03-06T05:51:28;6.90;91.30
10384;DHT22;5238;43.508;4.980;2024-03-06T05:53:55;6.90;91.30
10384;DHT22;5238;43.508;4.980;2024-03-06T05:56:23;6.90;91.30
10384;DHT22;5238;43.508;4.980;2024-03-06T05:58:49;6.90;91.30
10384;DHT22;5238;43.508;4.980;2024-03-06T06:01:17;6.90;91.30
10384;DHT22;5238;43.508;4.980;2024-03-06T06:03:45;6.90;91.30
10384;DHT22;5238;43.508;4.980;2024-03-06T06:06:16;6.80;91.30
10384;DHT22;5238;43.508;4.980;2024-03-06T06:08:43;6.80;91.30
10384;DHT22;5238;43.508;4.980;2024-03-06T06:11:11;6.80;91.30
10384;DHT22;5238;43.508;4.980;2024-03-06T06:13:38;6.80;91.30
10384;DHT22;5238;43.508;4.980;2024-03-06T06:16:06;6.80;91.30
10384;DHT22;5238;43.508;4.980;2024-03-06T06:18:33;6.80;91.30
10384;DHT22;5238;43.508;4.980;2024-03-06T06:21:00;6.80;91.30
10384;DHT22;5238;43.508;4.980;2024-03-06T06:23:31;6.90;91.30
10384;DHT22;5238;43.508;4.980;2024-03-06T06:25:57;6.90;91.30
10384;DHT22;5238;43.508;4.980;2024-03-06T06:28:24;6.90;91.30
10384;DHT22;5238;43.508;4.980;2024-03-06T06:30:51;6.90;91.30
10384;DHT22;5238;43.508;4.980;2024-03-06T06:33:19;6.90;91.30
10384;DHT22;5238;43.508;4.980;2024-03-06T06:35:46;6.90;91.30
10384;DHT22;5238;43.508;4.980;2024-03-06T06:38:13;6.90;91.30
10384;DHT22;5238;43.508;4.980;2024-03-06T06:40:41;7.00;91.30
10384;DHT22;5238;43.508;4.980;2024-03-06T06:43:08;7.10;91.30
10384;DHT22;5238;43.508;4.980;2024-03-06T06:45:36;7.20;91.30
10384;DHT22;5238;43.508;4.980;2024-03-06T06:48:03;7.40;91.30
10384;DHT22;5238;43.508;4.980;2024-03-06T06:50:30;7.50;91.30
10384;DHT22;5238;43.508;4.980;2024-03-06T06:52:59;7.70;91.30
10384;DHT22;5238;43.508;4.980;2024-03-06T06:55:26;7.90;91.30
10384;DHT22;5238;43.508;4.980;2024-03-06T06:57:54;8.20;91.30
10384;DHT22;5238;43.508;4.980;2024-03-06T07:00:22;8.40;91.30
10384;DHT22;5238;43.508;4.980;2024-03-06T07:02:50;8.70;91.30
10384;DHT22;5238;43.508;4.980;2024-03-06T07:05:17;8.90;91.30
10384;DHT22;5238;43.508;4.980;2024-03-06T07:07:44;9.20;91.30
10384;DHT22;5238;43.508;4.980;2024-03-06T07:10:11;9.40;91.30
10384;DHT22;5238;43.508;4.980;2024-03-06T07:12:39;9.60;91.30
10384;DHT22;5238;43.508;4.980;2024-03-06T07:15:08;9.80;91.30
10384;DHT22;5238;43.508;4.980;2024-03-06T07:17:35;10.00;91.30
10384;DHT22;5238;43.508;4.980;2024-03-06T07:20:02;10.30;91.30
10384;DHT22;5238;43.508;4.980;2024-03-06T07:22:30;10.40;91.30
10384;DHT22;5238;43.508;4.980;2024-03-06T07:24:59;10.60;91.30
10384;DHT22;5238;43.508;4.980;2024-03-06T07:27:26;10.90;91.30
10384;DHT22;5238;43.508;4.980;2024-03-06T07:29:53;11.10;91.30
10384;DHT22;5238;43.508;4.980;2024-03-06T07:32:22;11.40;91.30
10384;DHT22;5238;43.508;4.980;2024-03-06T07:34:49;11.60;91.30
10384;DHT22;5238;43.508;4.980;2024-03-06T07:37:16;11.80;91.30
10384;DHT22;5238;43.508;4.980;2024-03-06T07:39:43;12.00;91.30
10384;DHT22;5238;43.508;4.980;2024-03-06T07:42:10;12.20;91.30
10384;DHT22;5238;43.508;4.980;2024-03-06T07:44:38;12.50;91.30
10384;DHT22;5238;43.508;4.980;2024-03-06T07:47:05;12.60;91.30
10384;DHT22;5238;43.508;4.980;2024-03-06T07:49:34;12.80;91.30
10384;DHT22;5238;43.508;4.980;2024-03-06T07:52:01;13.00;91.30
10384;DHT22;5238;43.508;4.980;2024-03-06T07:54:29;13.20;91.30
10384;DHT22;5238;43.508;4.980;2024-03-06T07:56:56;13.40;91.30
10384;DHT22;5238;43.508;4.980;2024-03-06T07:59:23;13.60;91.30
10384;DHT22;5238;43.508;4.980;2024-03-06T08:01:50;13.70;91.30
10384;DHT22;5238;43.508;4.980;2024-03-06T08:04:18;13.90;91.30
10384;DHT22;5238;43.508;4.980;2024-03-06T08:06:46;14.10;91.30
10384;DHT22;5238;43.508;4.980;2024-03-06T08:09:13;14.30;91.30
10384;DHT22;5238;43.508;4.980;2024-03-06T08:11:42;14.40;91.30
10384;DHT22;5238;43.508;4.980;2024-03-06T08:14:09;14.50;91.30
10384;DHT22;5238;43.508;4.980;2024-03-06T08:16:35;14.60;91.30
10384;DHT22;5238;43.508;4.980;2024-03-06T08:19:03;14.70;91.30
10384;DHT22;5238;43.508;4.980;2024-03-06T08:21:29;14.90;91.30
10384;DHT22;5238;43.508;4.980;2024-03-06T08:23:58;15.00;91.30
10384;DHT22;5238;43.508;4.980;2024-03-06T08:26:25;15.00;91.30
10384;DHT22;5238;43.508;4.980;2024-03-06T08:28:51;15.00;91.30
10384;DHT22;5238;43.508;4.980;2024-03-06T08:31:18;15.10;91.30
10384;DHT22;5238;43.508;4.980;2024-03-06T08:33:47;15.30;91.30
10384;DHT22;5238;43.508;4.980;2024-03-06T08:36:14;15.50;91.30
10384;DHT22;5238;43.508;4.980;2024-03-06T08:38:41;15.60;91.30
10384;DHT22;5238;43.508;4.980;2024-03-06T08:41:09;15.90;91.30
10384;DHT22;5238;43.508;4.980;2024-03-06T08:43:36;16.10;91.30
10384;DHT22;5238;43.508;4.980;2024-03-06T08:46:03;16.30;91.30
10384;DHT22;5238;43.508;4.980;2024-03-06T08:48:30;16.40;91.30
10384;DHT22;5238;43.508;4.980;2024-03-06T08:50:57;16.60;91.30
10384;DHT22;5238;43.508;4.980;2024-03-06T08:53:24;16.70;91.30
10384;DHT22;5238;43.508;4.980;2024-03-06T08:55:51;16.90;91.30
10384;DHT22;5238;43.508;4.980;2024-03-06T08:58:19;17.00;91.30
10384;DHT22;5238;43.508;4.980;2024-03-06T09:00:46;17.10;91.30
10384;DHT22;5238;43.508;4.980;2024-03-06T09:03:14;17.20;91.30
10384;DHT22;5238;43.508;4.980;2024-03-06T09:05:41;17.30;91.30
10384;DHT22;5238;43.508;4.980;2024-03-06T09:08:08;17.50;91.30
10384;DHT22;5238;43.508;4.980;2024-03-06T09:10:35;17.60;91.30
10384;DHT22;5238;43.508;4.980;2024-03-06T09:13:02;17.70;91.30
10384;DHT22;5238;43.508;4.980;2024-03-06T09:15:31;17.80;91.30
10384;DHT22;5238;43.508;4.980;2024-03-06T09:17:57;18.00;91.30
10384;DHT22;5238;43.508;4.980;2024-03-06T09:20:24;18.10;91.30
10384;DHT22;5238;43.508;4.980;2024-03-06T09:22:51;18.10;91.30
10384;DHT22;5238;43.508;4.980;2024-03-06T09:25:20;18.10;91.30
10384;DHT22;5238;43.508;4.980;2024-03-06T09:27:46;18.10;91.30
10384;DHT22;5238;43.508;4.980;2024-03-06T09:30:14;18.10;91.30
10384;DHT22;5238;43.508;4.980;2024-03-06T09:32:42;18.10;91.30
10384;DHT22;5238;43.508;4.980;2024-03-06T09:35:10;18.10;91.30
10384;DHT22;5238;43.508;4.980;2024-03-06T09:37:37;18.20;91.30
10384;DHT22;5238;43.508;4.980;2024-03-06T09:40:05;18.20;91.30
10384;DHT22;5238;43.508;4.980;2024-03-06T09:42:33;18.20;91.30
10384;DHT22;5238;43.508;4.980;2024-03-06T09:45:00;18.30;91.30
10384;DHT22;5238;43.508;4.980;2024-03-06T09:47:30;18.40;91.30
10384;DHT22;5238;43.508;4.980;2024-03-06T09:50:00;18.50;91.30
10384;DHT22;5238;43.508;4.980;2024-03-06T09:52:31;18.60;91.30
10384;DHT22;5238;43.508;4.980;2024-03-06T09:55:01;18.70;91.30
10384;DHT22;5238;43.508;4.980;2024-03-06T09:57:29;18.80;91.30
10384;DHT22;5238;43.508;4.980;2024-03-06T09:59:56;18.90;91.30
10384;DHT22;5238;43.508;4.980;2024-03-06T10:02:31;18.90;91.30
10384;DHT22;5238;43.508;4.980;2024-03-06T10:05:01;19.10;91.30
10384;DHT22;5238;43.508;4.980;2024-03-06T10:07:28;19.30;91.30
10384;DHT22;5238;43.508;4.980;2024-03-06T10:09:56;19.40;91.30
10384;DHT22;5238;43.508;4.980;2024-03-06T10:12:22;19.50;91.30
10384;DHT22;5238;43.508;4.980;2024-03-06T10:14:50;19.60;91.30
10384;DHT22;5238;43.508;4.980;2024-03-06T10:17:21;19.50;91.30
10384;DHT22;5238;43.508;4.980;2024-03-06T10:19:49;19.60;91.30
10384;DHT22;5238;43.508;4.980;2024-03-06T10:22:19;19.60;91.30
10384;DHT22;5238;43.508;4.980;2024-03-06T10:24:47;19.60;91.30
10384;DHT22;5238;43.508;4.980;2024-03-06T10:27:15;19.70;91.30
10384;DHT22;5238;43.508;4.980;2024-03-06T10:29:43;19.70;91.30
10384;DHT22;5238;43.508;4.980;2024-03-06T10:32:15;19.80;91.30
10384;DHT22;5238;43.508;4.980;2024-03-06T10:34:44;19.80;91.30
10384;DHT22;5238;43.508;4.980;2024-03-06T10:37:11;19.80;91.30
10384;DHT22;5238;43.508;4.980;2024-03-06T10:39:42;19.90;91.30
10384;DHT22;5238;43.508;4.980;2024-03-06T10:42:13;19.80;91.30
10384;DHT22;5238;43.508;4.980;2024-03-06T10:44:43;19.80;91.30
10384;DHT22;5238;43.508;4.980;2024-03-06T10:47:15;19.70;91.30
10384;DHT22;5238;43.508;4.980;2024-03-06T10:49:42;19.70;91.30
10384;DHT22;5238;43.508;4.980;2024-03-06T10:52:09;19.80;91.30
10384;DHT22;5238;43.508;4.980;2024-03-06T10:54:36;19.80;91.30
10384;DHT22;5238;43.508;4.980;2024-03-06T10:57:10;19.80;91.30
10384;DHT22;5238;43.508;4.980;2024-03-06T10:59:37;19.90;91.30
10384;DHT22;5238;43.508;4.980;2024-03-06T11:02:07;19.90;91.30
10384;DHT22;5238;43.508;4.980;2024-03-06T11:04:35;19.80;91.30
10384;DHT22;5238;43.508;4.980;2024-03-06T11:07:03;19.80;91.30
10384;DHT22;5238;43.508;4.980;2024-03-06T11:09:33;19.80;91.30
10384;DHT22;5238;43.508;4.980;2024-03-06T11:12:02;19.80;91.30
10384;DHT22;5238;43.508;4.980;2024-03-06T11:14:31;19.70;91.30
10384;DHT22;5238;43.508;4.980;2024-03-06T11:17:00;19.60;91.30
10384;DHT22;5238;43.508;4.980;2024-03-06T11:19:28;19.40;91.30
10384;DHT22;5238;43.508;4.980;2024-03-06T11:21:55;19.30;91.30
10384;DHT22;5238;43.508;4.980;2024-03-06T11:24:22;19.10;91.30
10384;DHT22;5238;43.508;4.980;2024-03-06T11:26:54;18.80;91.30
10384;DHT22;5238;43.508;4.980;2024-03-06T11:29:23;18.60;91.30
10384;DHT22;5238;43.508;4.980;2024-03-06T11:32:02;18.40;91.30
10384;DHT22;5238;43.508;4.980;2024-03-06T11:34:30;18.20;91.30
10384;DHT22;5238;43.508;4.980;2024-03-06T11:36:57;18.10;91.30
10384;DHT22;5238;43.508;4.980;2024-03-06T11:39:27;18.00;91.30
10384;DHT22;5238;43.508;4.980;2024-03-06T11:41:55;17.80;91.30
10384;DHT22;5238;43.508;4.980;2024-03-06T11:44:22;17.60;91.30
10384;DHT22;5238;43.508;4.980;2024-03-06T11:46:57;17.40;91.30
10384;DHT22;5238;43.508;4.980;2024-03-06T11:49:27;17.30;91.30
10384;DHT22;5238;43.508;4.980;2024-03-06T11:51:56;17.20;91.30
10384;DHT22;5238;43.508;4.980;2024-03-06T11:54:23;17.10;91.30
10384;DHT22;5238;43.508;4.980;2024-03-06T11:56:53;17.00;91.30
10384;DHT22;5238;43.508;4.980;2024-03-06T11:59:21;16.90;91.30
10384;DHT22;5238;43.508;4.980;2024-03-06T12:01:48;16.80;91.30
10384;DHT22;5238;43.508;4.980;2024-03-06T12:04:16;16.60;91.30
10384;DHT22;5238;43.508;4.980;2024-03-06T12:06:44;16.60;91.30
10384;DHT22;5238;43.508;4.980;2024-03-06T12:09:11;16.50;91.30
10384;DHT22;5238;43.508;4.980;2024-03-06T12:11:38;16.40;91.30
10384;DHT22;5238;43.508;4.980;2024-03-06T12:14:05;16.30;91.30
10384;DHT22;5238;43.508;4.980;2024-03-06T12:16:33;16.20;91.30
10384;DHT22;5238;43.508;4.980;2024-03-06T12:19:00;16.20;91.30
10384;DHT22;5238;43.508;4.980;2024-03-06T12:21:31;16.20;91.30
10384;DHT22;5238;43.508;4.980;2024-03-06T12:24:07;16.20;91.30
10384;DHT22;5238;43.508;4.980;2024-03-06T12:26:34;16.20;91.30
10384;DHT22;5238;43.508;4.980;2024-03-06T12:29:08;16.20;91.30
10384;DHT22;5238;43.508;4.980;2024-03-06T12:31:37;16.30;91.30
10384;DHT22;5238;43.508;4.980;2024-03-06T12:34:05;16.30;91.30
10384;DHT22;5238;43.508;4.980;2024-03-06T12:36:33;16.30;91.30
10384;DHT22;5238;43.508;4.980;2024-03-06T12:39:02;16.30;91.30
10384;DHT22;5238;43.508;4.980;2024-03-06T12:41:30;16.30;91.30
10384;DHT22;5238;43.508;4.980;2024-03-06T12:43:57;16.30;91.30
10384;DHT22;5238;43.508;4.980;2024-03-06T12:46:24;16.30;91.30
10384;DHT22;5238;43.508;4.980;2024-03-06T12:48:52;16.20;91.30
10384;DHT22;5238;43.508;4.980;2024-03-06T12:51:19;16.20;91.30
10384;DHT22;5238;43.508;4.980;2024-03-06T12:53:45;16.20;91.30
10384;DHT22;5238;43.508;4.980;2024-03-06T12:56:13;16.30;91.30
10384;DHT22;5238;43.508;4.980;2024-03-06T12:58:41;16.30;91.30
10384;DHT22;5238;43.508;4.980;2024-03-06T13:01:08;16.30;91.30
10384;DHT22;5238;43.508;4.980;2024-03-06T13:03:35;16.30;91.30
10384;DHT22;5238;43.508;4.980;2024-03-06T13:06:03;16.30;91.30
10384;DHT22;5238;43.508;4.980;2024-03-06T13:08:30;16.30;91.30
10384;DHT22;5238;43.508;4.980;2024-03-06T13:10:57;16.20;91.30
10384;DHT22;5238;43.508;4.980;2024-03-06T13:13:24;16.20;91.30
10384;DHT22;5238;43.508;4.980;2024-03-06T13:15:56;16.20;91.30
10384;DHT22;5238;43.508;4.980;2024-03-06T13:18:23;16.20;91.30
10384;DHT22;5238;43.508;4.980;2024-03-06T13:20:51;16.20;91.30
10384;DHT22;5238;43.508;4.980;2024-03-06T13:23:18;16.20;91.30
10384;DHT22;5238;43.508;4.980;2024-03-06T13:25:45;16.20;91.30
10384;DHT22;5238;43.508;4.980;2024-03-06T13:28:12;16.20;91.30
10384;DHT22;5238;43.508;4.980;2024-03-06T13:30:39;16.20;91.30
10384;DHT22;5238;43.508;4.980;2024-03-06T13:33:07;16.20;91.30
10384;DHT22;5238;43.508;4.980;2024-03-06T13:35:34;16.10;91.30
10384;DHT22;5238;43.508;4.980;2024-03-06T13:38:01;16.10;91.30
10384;DHT22;5238;43.508;4.980;2024-03-06T13:40:29;16.10;91.30
10384;DHT22;5238;43.508;4.980;2024-03-06T13:42:55;16.10;91.30
10384;DHT22;5238;43.508;4.980;2024-03-06T13:45:22;16.10;91.30
10384;DHT22;5238;43.508;4.980;2024-03-06T13:47:49;16.10;91.30
10384;DHT22;5238;43.508;4.980;2024-03-06T13:50:18;16.00;91.30
10384;DHT22;5238;43.508;4.980;2024-03-06T13:52:45;16.00;91.30
10384;DHT22;5238;43.508;4.980;2024-03-06T13:55:12;16.00;91.30
10384;DHT22;5238;43.508;4.980;2024-03-06T13:57:40;16.00;91.30
10384;DHT22;5238;43.508;4.980;2024-03-06T14:00:08;16.00;91.30
10384;DHT22;5238;43.508;4.980;2024-03-06T14:02:42;16.00;91.30
10384;DHT22;5238;43.508;4.980;2024-03-06T14:05:09;16.00;91.30
10384;DHT22;5238;43.508;4.980;2024-03-06T14:07:38;16.00;91.30
10384;DHT22;5238;43.508;4.980;2024-03-06T14:10:07;16.00;91.30
10384;DHT22;5238;43.508;4.980;2024-03-06T14:12:34;16.00;91.30
10384;DHT22;5238;43.508;4.980;2024-03-06T14:15:03;16.00;91.30
10384;DHT22;5238;43.508;4.980;2024-03-06T14:17:30;16.00;91.30
10384;DHT22;5238;43.508;4.980;2024-03-06T14:19:57;16.00;91.30
10384;DHT22;5238;43.508;4.980;2024-03-06T14:22:24;16.00;91.30
10384;DHT22;5238;43.508;4.980;2024-03-06T14:24:53;16.00;91.30
10384;DHT22;5238;43.508;4.980;2024-03-06T14:27:19;16.00;91.30
10384;DHT22;5238;43.508;4.980;2024-03-06T14:29:46;16.00;91.30
10384;DHT22;5238;43.508;4.980;2024-03-06T14:32:14;16.00;91.30
10384;DHT22;5238;43.508;4.980;2024-03-06T14:34:41;16.00;91.30
10384;DHT22;5238;43.508;4.980;2024-03-06T14:37:09;16.00;91.30
10384;DHT22;5238;43.508;4.980;2024-03-06T14:39:36;15.90;91.30
10384;DHT22;5238;43.508;4.980;2024-03-06T14:42:04;15.90;91.30
10384;DHT22;5238;43.508;4.980;2024-03-06T14:44:31;15.90;91.30
10384;DHT22;5238;43.508;4.980;2024-03-06T14:46:58;15.90;91.30
10384;DHT22;5238;43.508;4.980;2024-03-06T14:49:25;15.90;91.30
10384;DHT22;5238;43.508;4.980;2024-03-06T14:51:52;15.90;91.30
10384;DHT22;5238;43.508;4.980;2024-03-06T14:54:21;15.90;91.30
10384;DHT22;5238;43.508;4.980;2024-03-06T14:56:48;15.90;91.30
10384;DHT22;5238;43.508;4.980;2024-03-06T14:59:17;15.90;91.30
10384;DHT22;5238;43.508;4.980;2024-03-06T15:01:43;15.90;91.30
10384;DHT22;5238;43.508;4.980;2024-03-06T15:04:12;15.90;91.30
10384;DHT22;5238;43.508;4.980;2024-03-06T15:06:40;15.80;91.30
10384;DHT22;5238;43.508;4.980;2024-03-06T15:09:07;15.90;91.30
10384;DHT22;5238;43.508;4.980;2024-03-06T15:11:37;15.80;91.30
10384;DHT22;5238;43.508;4.980;2024-03-06T15:14:04;15.80;91.30
10384;DHT22;5238;43.508;4.980;2024-03-06T15:16:34;15.80;91.30
10384;DHT22;5238;43.508;4.980;2024-03-06T15:19:01;15.80;91.30
10384;DHT22;5238;43.508;4.980;2024-03-06T15:21:29;15.80;91.30
10384;DHT22;5238;43.508;4.980;2024-03-06T15:23:56;15.80;91.30
10384;DHT22;5238;43.508;4.980;2024-03-06T15:26:23;15.80;91.30
10384;DHT22;5238;43.508;4.980;2024-03-06T15:28:50;15.80;91.30
10384;DHT22;5238;43.508;4.980;2024-03-06T15:31:18;15.70;91.30
10384;DHT22;5238;43.508;4.980;2024-03-06T15:33:47;15.70;91.30
10384;DHT22;5238;43.508;4.980;2024-03-06T15:36:15;15.70;91.30
10384;DHT22;5238;43.508;4.980;2024-03-06T15:38:42;15.70;91.30
10384;DHT22;5238;43.508;4.980;2024-03-06T15:41:08;15.60;91.30
10384;DHT22;5238;43.508;4.980;2024-03-06T15:43:35;15.60;91.30
10384;DHT22;5238;43.508;4.980;2024-03-06T15:46:03;15.60;91.30
10384;DHT22;5238;43.508;4.980;2024-03-06T15:48:30;15.60;91.30
10384;DHT22;5238;43.508;4.980;2024-03-06T15:51:00;15.60;91.30
10384;DHT22;5238;43.508;4.980;2024-03-06T15:53:27;15.50;91.30
10384;DHT22;5238;43.508;4.980;2024-03-06T15:55:55;15.50;91.30